createdAt,value
2023-01-13T05:26:46.150Z,996
2023-01-13T05:40:56.176Z,996
2023-01-13T05:55:08.066Z,996
2023-01-13T06:09:20.901Z,996
2023-01-13T06:23:32.727Z,996
2023-01-13T06:37:43.804Z,996
2023-01-13T06:51:50.547Z,996
2023-01-13T07:05:59.685Z,997
2023-01-13T07:20:12.024Z,997
2023-01-13T07:34:23.373Z,997
2023-01-13T07:48:34.432Z,997
2023-01-13T08:02:40.289Z,997
2023-01-13T08:16:52.634Z,998
2023-01-13T08:31:03.853Z,998
2023-01-13T08:45:16.488Z,998
2023-01-13T08:59:26.774Z,998
2023-01-13T09:13:34.754Z,998
2023-01-13T09:27:48.538Z,998
2023-01-13T09:41:59.853Z,998
2023-01-13T09:56:13.547Z,998
2023-01-13T10:10:26.861Z,999
2023-01-13T10:24:34.136Z,999
2023-01-13T10:38:45.212Z,999
2023-01-13T10:52:57.976Z,999
2023-01-13T11:07:09.303Z,999
2023-01-13T11:21:19.194Z,999
2023-01-13T11:35:25.459Z,999
2023-01-13T11:49:37.738Z,999
2023-01-13T12:03:51.007Z,999
2023-01-13T12:18:02.651Z,999
2023-01-13T12:32:13.486Z,1000
2023-01-13T12:46:24.796Z,1000
2023-01-13T13:00:37.149Z,1000
2023-01-13T13:14:51.571Z,1000
2023-01-13T13:29:03.463Z,1000
2023-01-13T13:43:13.587Z,1000
2023-01-13T13:57:23.073Z,1000
2023-01-13T14:11:33.907Z,1001
2023-01-13T14:25:47.117Z,1001
2023-01-13T14:39:58.871Z,1001
2023-01-13T14:54:11.862Z,1001
2023-01-13T15:08:21.705Z,1002
2023-01-13T15:22:31.030Z,1002
2023-01-13T15:36:43.100Z,1002
2023-01-13T15:50:54.584Z,1002
2023-01-13T16:05:03.496Z,1003
2023-01-13T16:19:14.035Z,1003
2023-01-13T16:33:22.774Z,1003
2023-01-13T16:47:33.796Z,1003
2023-01-13T17:01:45.675Z,1003
2023-01-13T17:15:54.365Z,1004
2023-01-13T17:30:05.100Z,1004
2023-01-13T17:44:09.447Z,1004
2023-01-13T17:58:21.509Z,1004
2023-01-13T18:12:33.887Z,1005
2023-01-13T18:26:38.680Z,1005
2023-01-13T18:40:51.028Z,1005
2023-01-13T18:54:59.960Z,1005
2023-01-13T19:09:08.932Z,1005
2023-01-13T19:23:19.525Z,1005
2023-01-13T19:37:28.012Z,1005
2023-01-13T19:51:40.023Z,1006
2023-01-13T20:05:46.732Z,1006
2023-01-13T20:19:57.742Z,1006
2023-01-13T20:34:08.635Z,1006
2023-01-13T20:48:18.906Z,1006
2023-01-13T21:02:32.065Z,1006
2023-01-13T21:16:38.945Z,1006
2023-01-13T21:30:47.207Z,1006
2023-01-13T21:44:58.349Z,1006
2023-01-13T21:59:08.083Z,1006
2023-01-13T22:13:19.905Z,1007
2023-01-13T22:27:34.728Z,1007
2023-01-13T22:41:44.117Z,1006
2023-01-13T22:55:52.515Z,1006
2023-01-13T23:10:00.937Z,1007
2023-01-13T23:24:12.745Z,1006
2023-01-13T23:38:19.631Z,1006
